sensor_id;sensor_type;location;lat;lon;timestamp;pressure;altitude;pressure_sealevel;temperature;humidity
32083;BME280;18597;48.328;7.932;2022-07-23T00:00:00;99468.41;;;19.49;100.00
32083;BME280;18597;48.328;7.932;2022-07-23T00:02:26;99439.53;;;19.35;100.00
32083;BME280;18597;48.328;7.932;2022-07-23T00:04:52;99476.78;;;19.33;100.00
32083;BME280;18597;48.328;7.932;2022-07-23T00:07:17;99526.47;;;19.40;100.00
32083;BME280;18597;48.328;7.932;2022-07-23T00:09:43;99563.25;;;19.49;100.00
32083;BME280;18597;48.328;7.932;2022-07-23T00:12:09;99583.25;;;19.48;100.00
32083;BME280;18597;48.328;7.932;2022-07-23T00:14:35;99557.56;;;19.44;100.00
32083;BME280;18597;48.328;7.932;2022-07-23T00:17:01;99524.41;;;19.42;100.00
32083;BME280;18597;48.328;7.932;2022-07-23T00:19:27;99482.59;;;19.30;100.00
32083;BME280;18597;48.328;7.932;2022-07-23T00:21:54;99476.66;;;19.20;100.00
32083;BME280;18597;48.328;7.932;2022-07-23T00:24:20;99412.34;;;19.07;100.00
32083;BME280;18597;48.328;7.932;2022-07-23T00:26:46;99363.97;;;19.04;100.00
32083;BME280;18597;48.328;7.932;2022-07-23T00:29:12;99347.84;;;18.96;100.00
32083;BME280;18597;48.328;7.932;2022-07-23T00:31:38;99366.72;;;18.89;100.00
32083;BME280;18597;48.328;7.932;2022-07-23T00:34:04;99389.50;;;18.95;100.00
32083;BME280;18597;48.328;7.932;2022-07-23T00:36:29;99388.03;;;18.92;100.00
32083;BME280;18597;48.328;7.932;2022-07-23T00:38:57;99386.53;;;18.90;100.00
32083;BME280;18597;48.328;7.932;2022-07-23T00:41:23;99399.59;;;18.86;100.00
32083;BME280;18597;48.328;7.932;2022-07-23T00:43:49;99420.78;;;18.97;100.00
32083;BME280;18597;48.328;7.932;2022-07-23T00:46:23;99438.91;;;18.97;100.00
32083;BME280;18597;48.328;7.932;2022-07-23T00:48:50;99424.25;;;18.91;100.00
32083;BME280;18597;48.328;7.932;2022-07-23T00:51:16;99405.03;;;18.86;100.00
32083;BME280;18597;48.328;7.932;2022-07-23T00:53:44;99402.13;;;18.88;100.00
32083;BME280;18597;48.328;7.932;2022-07-23T00:56:10;99403.78;;;18.89;100.00
32083;BME280;18597;48.328;7.932;2022-07-23T00:58:39;99402.94;;;18.88;100.00
32083;BME280;18597;48.328;7.932;2022-07-23T01:01:08;99405.28;;;18.91;100.00
32083;BME280;18597;48.328;7.932;2022-07-23T01:03:34;99406.97;;;18.92;100.00
32083;BME280;18597;48.328;7.932;2022-07-23T01:06:00;99418.72;;;18.99;100.00
32083;BME280;18597;48.328;7.932;2022-07-23T01:08:26;99416.56;;;18.95;100.00
32083;BME280;18597;48.328;7.932;2022-07-23T01:10:52;99420.31;;;18.94;100.00
32083;BME280;18597;48.328;7.932;2022-07-23T01:13:19;99424.88;;;18.93;100.00
32083;BME280;18597;48.328;7.932;2022-07-23T01:15:45;99435.72;;;18.78;100.00
32083;BME280;18597;48.328;7.932;2022-07-23T01:18:11;99439.78;;;18.68;100.00
32083;BME280;18597;48.328;7.932;2022-07-23T01:20:38;99444.50;;;18.66;100.00
32083;BME280;18597;48.328;7.932;2022-07-23T01:23:04;99448.88;;;18.81;100.00
32083;BME280;18597;48.328;7.932;2022-07-23T01:25:30;99446.75;;;18.77;100.00
32083;BME280;18597;48.328;7.932;2022-07-23T01:27:56;99437.97;;;18.90;100.00
32083;BME280;18597;48.328;7.932;2022-07-23T01:30:22;99443.66;;;18.80;100.00
32083;BME280;18597;48.328;7.932;2022-07-23T01:32:48;99436.38;;;18.66;100.00
32083;BME280;18597;48.328;7.932;2022-07-23T01:35:14;99430.97;;;18.66;100.00
32083;BME280;18597;48.328;7.932;2022-07-23T01:37:40;99433.59;;;18.59;100.00
32083;BME280;18597;48.328;7.932;2022-07-23T01:40:06;99438.53;;;18.70;100.00
32083;BME280;18597;48.328;7.932;2022-07-23T01:42:32;99443.75;;;18.72;100.00
32083;BME280;18597;48.328;7.932;2022-07-23T01:44:58;99430.03;;;18.58;100.00
32083;BME280;18597;48.328;7.932;2022-07-23T01:47:24;99435.06;;;18.62;100.00
32083;BME280;18597;48.328;7.932;2022-07-23T01:49:50;99439.25;;;18.49;100.00
32083;BME280;18597;48.328;7.932;2022-07-23T01:52:16;99440.09;;;18.50;100.00
32083;BME280;18597;48.328;7.932;2022-07-23T01:54:42;99436.94;;;18.46;100.00
32083;BME280;18597;48.328;7.932;2022-07-23T01:57:08;99450.66;;;18.45;100.00
32083;BME280;18597;48.328;7.932;2022-07-23T01:59:35;99459.53;;;18.53;100.00
32083;BME280;18597;48.328;7.932;2022-07-23T02:02:01;99464.84;;;18.47;100.00
32083;BME280;18597;48.328;7.932;2022-07-23T02:04:29;99466.59;;;18.54;100.00
32083;BME280;18597;48.328;7.932;2022-07-23T02:06:54;99471.47;;;18.59;100.00
32083;BME280;18597;48.328;7.932;2022-07-23T02:09:20;99472.75;;;18.48;100.00
32083;BME280;18597;48.328;7.932;2022-07-23T02:11:47;99479.28;;;18.39;100.00
32083;BME280;18597;48.328;7.932;2022-07-23T02:14:13;99498.88;;;18.41;100.00
32083;BME280;18597;48.328;7.932;2022-07-23T02:16:39;99498.41;;;18.38;100.00
32083;BME280;18597;48.328;7.932;2022-07-23T02:19:05;99501.44;;;18.20;100.00
32083;BME280;18597;48.328;7.932;2022-07-23T02:21:31;99510.47;;;18.12;100.00
32083;BME280;18597;48.328;7.932;2022-07-23T02:23:57;99518.41;;;18.14;100.00
32083;BME280;18597;48.328;7.932;2022-07-23T02:26:23;99506.50;;;18.23;100.00
32083;BME280;18597;48.328;7.932;2022-07-23T02:28:49;99512.34;;;18.26;100.00
32083;BME280;18597;48.328;7.932;2022-07-23T02:31:14;99508.47;;;18.29;100.00
32083;BME280;18597;48.328;7.932;2022-07-23T02:33:40;99497.63;;;18.14;100.00
32083;BME280;18597;48.328;7.932;2022-07-23T02:36:06;99502.53;;;18.11;100.00
32083;BME280;18597;48.328;7.932;2022-07-23T02:38:32;99489.94;;;18.03;100.00
32083;BME280;18597;48.328;7.932;2022-07-23T02:40:58;99494.50;;;18.02;100.00
32083;BME280;18597;48.328;7.932;2022-07-23T02:43:24;99502.16;;;17.99;100.00
32083;BME280;18597;48.328;7.932;2022-07-23T02:45:50;99495.53;;;18.01;100.00
32083;BME280;18597;48.328;7.932;2022-07-23T02:48:16;99492.34;;;17.98;100.00
32083;BME280;18597;48.328;7.932;2022-07-23T02:50:41;99485.44;;;17.95;100.00
32083;BME280;18597;48.328;7.932;2022-07-23T02:53:07;99489.81;;;17.96;100.00
32083;BME280;18597;48.328;7.932;2022-07-23T02:55:33;99493.56;;;17.95;100.00
32083;BME280;18597;48.328;7.932;2022-07-23T02:57:59;99489.16;;;17.94;100.00
32083;BME280;18597;48.328;7.932;2022-07-23T03:00:25;99493.78;;;18.09;100.00
32083;BME280;18597;48.328;7.932;2022-07-23T03:02:51;99495.47;;;18.10;100.00
32083;BME280;18597;48.328;7.932;2022-07-23T03:05:17;99491.25;;;18.07;100.00
32083;BME280;18597;48.328;7.932;2022-07-23T03:07:43;99502.44;;;18.04;100.00
32083;BME280;18597;48.328;7.932;2022-07-23T03:10:09;99490.88;;;18.10;100.00
32083;BME280;18597;48.328;7.932;2022-07-23T03:12:34;99494.72;;;18.16;100.00
32083;BME280;18597;48.328;7.932;2022-07-23T03:15:00;99491.94;;;18.24;100.00
32083;BME280;18597;48.328;7.932;2022-07-23T03:17:26;99498.56;;;18.21;100.00
32083;BME280;18597;48.328;7.932;2022-07-23T03:19:52;99498.19;;;18.24;100.00
32083;BME280;18597;48.328;7.932;2022-07-23T03:22:18;99510.56;;;18.19;100.00
32083;BME280;18597;48.328;7.932;2022-07-23T03:24:44;99514.19;;;18.11;100.00
32083;BME280;18597;48.328;7.932;2022-07-23T03:27:27;99515.41;;;18.09;100.00
32083;BME280;18597;48.328;7.932;2022-07-23T03:29:56;99532.53;;;18.01;100.00
32083;BME280;18597;48.328;7.932;2022-07-23T03:32:23;99528.88;;;17.94;100.00
32083;BME280;18597;48.328;7.932;2022-07-23T03:34:50;99527.66;;;17.96;100.00
32083;BME280;18597;48.328;7.932;2022-07-23T03:37:17;99541.38;;;17.95;100.00
32083;BME280;18597;48.328;7.932;2022-07-23T03:39:43;99552.44;;;17.85;100.00
32083;BME280;18597;48.328;7.932;2022-07-23T03:42:10;99546.31;;;17.91;100.00
32083;BME280;18597;48.328;7.932;2022-07-23T03:44:36;99553.25;;;17.86;100.00
32083;BME280;18597;48.328;7.932;2022-07-23T03:47:04;99556.75;;;17.94;100.00
32083;BME280;18597;48.328;7.932;2022-07-23T03:49:30;99544.25;;;17.93;100.00
32083;BME280;18597;48.328;7.932;2022-07-23T03:51:56;99551.34;;;17.94;100.00
32083;BME280;18597;48.328;7.932;2022-07-23T03:54:21;99554.88;;;17.95;100.00
32083;BME280;18597;48.328;7.932;2022-07-23T03:56:47;99550.81;;;17.99;100.00
32083;BME280;18597;48.328;7.932;2022-07-23T03:59:14;99559.00;;;18.06;100.00
32083;BME280;18597;48.328;7.932;2022-07-23T04:01:39;99554.94;;;18.10;100.00
32083;BME280;18597;48.328;7.932;2022-07-23T04:04:05;99559.81;;;18.14;100.00
32083;BME280;18597;48.328;7.932;2022-07-23T04:06:31;99559.63;;;18.16;100.00
32083;BME280;18597;48.328;7.932;2022-07-23T04:08:58;99552.81;;;18.20;100.00
32083;BME280;18597;48.328;7.932;2022-07-23T04:11:23;99549.75;;;18.23;100.00
32083;BME280;18597;48.328;7.932;2022-07-23T04:13:49;99552.66;;;18.21;100.00
32083;BME280;18597;48.328;7.932;2022-07-23T04:16:15;99558.41;;;18.18;100.00
32083;BME280;18597;48.328;7.932;2022-07-23T04:18:41;99563.28;;;18.23;100.00
32083;BME280;18597;48.328;7.932;2022-07-23T04:21:07;99560.19;;;18.26;100.00
32083;BME280;18597;48.328;7.932;2022-07-23T04:23:33;99556.34;;;18.20;100.00
32083;BME280;18597;48.328;7.932;2022-07-23T04:25:59;99549.50;;;18.33;100.00
32083;BME280;18597;48.328;7.932;2022-07-23T04:28:24;99546.91;;;18.39;100.00
32083;BME280;18597;48.328;7.932;2022-07-23T04:30:50;99541.84;;;18.36;100.00
32083;BME280;18597;48.328;7.932;2022-07-23T04:33:16;99556.25;;;18.51;100.00
32083;BME280;18597;48.328;7.932;2022-07-23T04:35:42;99549.91;;;18.44;100.00
32083;BME280;18597;48.328;7.932;2022-07-23T04:38:08;99553.56;;;18.51;100.00
32083;BME280;18597;48.328;7.932;2022-07-23T04:40:34;99548.19;;;18.43;100.00
32083;BME280;18597;48.328;7.932;2022-07-23T04:43:00;99543.94;;;18.49;100.00
32083;BME280;18597;48.328;7.932;2022-07-23T04:45:26;99541.13;;;18.42;100.00
32083;BME280;18597;48.328;7.932;2022-07-23T04:47:51;99542.78;;;18.43;100.00
32083;BME280;18597;48.328;7.932;2022-07-23T04:50:17;99538.16;;;18.52;100.00
32083;BME280;18597;48.328;7.932;2022-07-23T04:52:48;99548.84;;;18.68;100.00
32083;BME280;18597;48.328;7.932;2022-07-23T04:55:15;99548.94;;;18.75;100.00
32083;BME280;18597;48.328;7.932;2022-07-23T04:57:41;99539.41;;;18.94;100.00
32083;BME280;18597;48.328;7.932;2022-07-23T05:00:08;99532.75;;;19.11;100.00
32083;BME280;18597;48.328;7.932;2022-07-23T05:02:34;99546.00;;;19.35;100.00
32083;BME280;18597;48.328;7.932;2022-07-23T05:05:01;99546.34;;;19.62;100.00
32083;BME280;18597;48.328;7.932;2022-07-23T05:07:26;99547.56;;;20.02;100.00
32083;BME280;18597;48.328;7.932;2022-07-23T05:09:52;99545.78;;;20.87;100.00
32083;BME280;18597;48.328;7.932;2022-07-23T05:12:18;99535.19;;;20.98;100.00
32083;BME280;18597;48.328;7.932;2022-07-23T05:14:44;99529.53;;;21.00;100.00
32083;BME280;18597;48.328;7.932;2022-07-23T05:17:10;99543.63;;;20.75;100.00
32083;BME280;18597;48.328;7.932;2022-07-23T05:19:35;99542.88;;;20.88;100.00
32083;BME280;18597;48.328;7.932;2022-07-23T05:22:02;99538.91;;;20.56;100.00
32083;BME280;18597;48.328;7.932;2022-07-23T05:24:28;99533.06;;;20.59;100.00
32083;BME280;18597;48.328;7.932;2022-07-23T05:26:54;99526.03;;;20.43;100.00
32083;BME280;18597;48.328;7.932;2022-07-23T05:29:19;99527.22;;;20.56;100.00
32083;BME280;18597;48.328;7.932;2022-07-23T05:31:45;99546.66;;;20.94;100.00
32083;BME280;18597;48.328;7.932;2022-07-23T05:34:11;99544.38;;;22.13;100.00
32083;BME280;18597;48.328;7.932;2022-07-23T05:36:37;99551.66;;;24.58;81.76
32083;BME280;18597;48.328;7.932;2022-07-23T05:39:04;99549.06;;;25.43;77.23
32083;BME280;18597;48.328;7.932;2022-07-23T05:41:30;99568.63;;;25.10;77.58
32083;BME280;18597;48.328;7.932;2022-07-23T05:43:56;99566.09;;;25.27;78.25
32083;BME280;18597;48.328;7.932;2022-07-23T05:46:22;99565.06;;;25.76;74.57
32083;BME280;18597;48.328;7.932;2022-07-23T05:48:48;99560.63;;;25.93;74.40
32083;BME280;18597;48.328;7.932;2022-07-23T05:51:30;99553.72;;;26.44;72.77
32083;BME280;18597;48.328;7.932;2022-07-23T05:53:56;99547.72;;;27.53;67.75
32083;BME280;18597;48.328;7.932;2022-07-23T05:56:21;99554.63;;;28.29;62.54
32083;BME280;18597;48.328;7.932;2022-07-23T05:58:47;99554.25;;;28.54;61.11
32083;BME280;18597;48.328;7.932;2022-07-23T06:01:13;99555.13;;;29.32;55.71
32083;BME280;18597;48.328;7.932;2022-07-23T06:03:39;99567.06;;;28.99;58.06
32083;BME280;18597;48.328;7.932;2022-07-23T06:06:06;99575.84;;;28.17;61.33
32083;BME280;18597;48.328;7.932;2022-07-23T06:08:32;99570.63;;;27.47;61.04
32083;BME280;18597;48.328;7.932;2022-07-23T06:10:58;99576.06;;;26.29;67.95
32083;BME280;18597;48.328;7.932;2022-07-23T06:13:24;99581.91;;;25.25;73.17
32083;BME280;18597;48.328;7.932;2022-07-23T06:15:50;99572.06;;;25.54;72.83
32083;BME280;18597;48.328;7.932;2022-07-23T06:18:16;99568.28;;;26.03;70.13
32083;BME280;18597;48.328;7.932;2022-07-23T06:20:42;99574.38;;;26.47;68.51
32083;BME280;18597;48.328;7.932;2022-07-23T06:23:08;99569.28;;;27.49;63.44
32083;BME280;18597;48.328;7.932;2022-07-23T06:25:34;99573.06;;;29.35;56.59
32083;BME280;18597;48.328;7.932;2022-07-23T06:27:59;99575.91;;;30.70;50.33
32083;BME280;18597;48.328;7.932;2022-07-23T06:30:26;99565.91;;;31.58;47.48
32083;BME280;18597;48.328;7.932;2022-07-23T06:32:51;99566.28;;;31.19;48.93
32083;BME280;18597;48.328;7.932;2022-07-23T06:35:17;99552.84;;;32.06;45.13
32083;BME280;18597;48.328;7.932;2022-07-23T06:37:43;99564.97;;;31.90;45.13
32083;BME280;18597;48.328;7.932;2022-07-23T06:40:10;99567.81;;;32.66;43.51
32083;BME280;18597;48.328;7.932;2022-07-23T06:42:36;99556.47;;;33.68;42.22
32083;BME280;18597;48.328;7.932;2022-07-23T06:45:05;99554.75;;;34.21;40.63
32083;BME280;18597;48.328;7.932;2022-07-23T06:47:31;99561.44;;;34.20;40.72
32083;BME280;18597;48.328;7.932;2022-07-23T06:49:58;99566.78;;;33.57;42.21
32083;BME280;18597;48.328;7.932;2022-07-23T06:52:23;99571.84;;;34.73;39.41
32083;BME280;18597;48.328;7.932;2022-07-23T06:54:50;99580.88;;;35.42;38.73
32083;BME280;18597;48.328;7.932;2022-07-23T06:57:16;99584.44;;;35.66;37.42
32083;BME280;18597;48.328;7.932;2022-07-23T06:59:41;99586.41;;;35.18;37.92
32083;BME280;18597;48.328;7.932;2022-07-23T07:02:08;99574.69;;;35.21;37.52
32083;BME280;18597;48.328;7.932;2022-07-23T07:04:34;99577.69;;;34.71;39.02
32083;BME280;18597;48.328;7.932;2022-07-23T07:07:00;99594.84;;;35.31;37.76
32083;BME280;18597;48.328;7.932;2022-07-23T07:09:26;99599.75;;;35.16;38.52
32083;BME280;18597;48.328;7.932;2022-07-23T07:11:52;99592.31;;;34.09;40.05
32083;BME280;18597;48.328;7.932;2022-07-23T07:14:18;99605.09;;;33.20;42.05
32083;BME280;18597;48.328;7.932;2022-07-23T07:16:44;99601.25;;;32.75;44.09
32083;BME280;18597;48.328;7.932;2022-07-23T07:19:10;99604.88;;;32.80;44.20
32083;BME280;18597;48.328;7.932;2022-07-23T07:21:36;99608.72;;;32.49;44.24
32083;BME280;18597;48.328;7.932;2022-07-23T07:24:02;99606.41;;;32.00;45.51
32083;BME280;18597;48.328;7.932;2022-07-23T07:26:28;99611.81;;;31.17;47.88
32083;BME280;18597;48.328;7.932;2022-07-23T07:28:55;99605.34;;;31.38;47.85
32083;BME280;18597;48.328;7.932;2022-07-23T07:31:20;99609.25;;;32.30;45.40
32083;BME280;18597;48.328;7.932;2022-07-23T07:33:46;99610.78;;;34.24;41.59
32083;BME280;18597;48.328;7.932;2022-07-23T07:36:13;99603.97;;;36.42;37.28
32083;BME280;18597;48.328;7.932;2022-07-23T07:38:39;99591.34;;;38.19;33.90
32083;BME280;18597;48.328;7.932;2022-07-23T07:41:04;99606.97;;;39.50;30.64
32083;BME280;18597;48.328;7.932;2022-07-23T07:43:30;99593.19;;;40.54;29.27
32083;BME280;18597;48.328;7.932;2022-07-23T07:45:56;99596.63;;;41.32;28.35
32083;BME280;18597;48.328;7.932;2022-07-23T07:48:22;99595.09;;;42.44;26.84
32083;BME280;18597;48.328;7.932;2022-07-23T07:50:48;99597.28;;;41.29;27.96
32083;BME280;18597;48.328;7.932;2022-07-23T07:53:13;99601.66;;;39.88;29.41
32083;BME280;18597;48.328;7.932;2022-07-23T07:55:39;99595.38;;;38.94;30.59
32083;BME280;18597;48.328;7.932;2022-07-23T07:58:05;99605.88;;;39.59;29.29
32083;BME280;18597;48.328;7.932;2022-07-23T08:00:31;99602.22;;;40.68;27.86
32083;BME280;18597;48.328;7.932;2022-07-23T08:02:58;99599.59;;;40.89;26.78
32083;BME280;18597;48.328;7.932;2022-07-23T08:05:27;99597.91;;;40.96;26.44
32083;BME280;18597;48.328;7.932;2022-07-23T08:07:55;99601.25;;;40.46;27.36
32083;BME280;18597;48.328;7.932;2022-07-23T08:10:21;99604.03;;;39.46;28.65
32083;BME280;18597;48.328;7.932;2022-07-23T08:12:50;99605.88;;;39.20;29.88
32083;BME280;18597;48.328;7.932;2022-07-23T08:15:18;99603.88;;;40.26;27.93
32083;BME280;18597;48.328;7.932;2022-07-23T08:17:46;99595.56;;;41.07;26.37
32083;BME280;18597;48.328;7.932;2022-07-23T08:20:20;99591.38;;;41.22;25.27
32083;BME280;18597;48.328;7.932;2022-07-23T08:25:27;99576.00;;;43.04;23.69
32083;BME280;18597;48.328;7.932;2022-07-23T08:27:53;99576.25;;;43.11;23.49
32083;BME280;18597;48.328;7.932;2022-07-23T08:30:20;99586.09;;;42.18;24.11
32083;BME280;18597;48.328;7.932;2022-07-23T08:33:04;99590.69;;;41.25;24.91
32083;BME280;18597;48.328;7.932;2022-07-23T08:35:36;99590.50;;;40.92;26.09
32083;BME280;18597;48.328;7.932;2022-07-23T08:38:09;99594.09;;;41.01;27.16
32083;BME280;18597;48.328;7.932;2022-07-23T08:40:38;99590.28;;;41.82;26.94
32083;BME280;18597;48.328;7.932;2022-07-23T08:43:08;99594.69;;;42.33;25.85
32083;BME280;18597;48.328;7.932;2022-07-23T08:45:39;99609.66;;;42.91;23.66
32083;BME280;18597;48.328;7.932;2022-07-23T08:48:14;99594.41;;;41.46;25.25
32083;BME280;18597;48.328;7.932;2022-07-23T08:50:48;99598.94;;;40.74;25.20
32083;BME280;18597;48.328;7.932;2022-07-23T08:53:16;99595.53;;;41.16;25.40
32083;BME280;18597;48.328;7.932;2022-07-23T08:55:45;99597.53;;;41.83;24.67
32083;BME280;18597;48.328;7.932;2022-07-23T08:58:12;99592.16;;;42.41;23.46
32083;BME280;18597;48.328;7.932;2022-07-23T09:00:39;99597.16;;;42.14;24.29
32083;BME280;18597;48.328;7.932;2022-07-23T09:03:05;99602.50;;;42.28;24.17
32083;BME280;18597;48.328;7.932;2022-07-23T09:05:31;99594.53;;;41.88;24.13
32083;BME280;18597;48.328;7.932;2022-07-23T09:08:07;99602.63;;;42.10;23.67
32083;BME280;18597;48.328;7.932;2022-07-23T09:13:42;99601.72;;;42.60;22.24
32083;BME280;18597;48.328;7.932;2022-07-23T09:16:29;99597.13;;;41.93;23.33
32083;BME280;18597;48.328;7.932;2022-07-23T09:19:02;99584.38;;;40.98;24.09
32083;BME280;18597;48.328;7.932;2022-07-23T09:21:33;99593.63;;;39.86;25.23
32083;BME280;18597;48.328;7.932;2022-07-23T09:24:12;99578.28;;;38.42;26.76
32083;BME280;18597;48.328;7.932;2022-07-23T09:26:47;99573.78;;;37.83;28.08
32083;BME280;18597;48.328;7.932;2022-07-23T09:29:23;99582.66;;;37.30;28.33
32083;BME280;18597;48.328;7.932;2022-07-23T09:34:34;99587.84;;;36.57;30.21
32083;BME280;18597;48.328;7.932;2022-07-23T09:37:13;99581.56;;;36.33;30.01
32083;BME280;18597;48.328;7.932;2022-07-23T09:39:41;99586.00;;;35.96;31.18
32083;BME280;18597;48.328;7.932;2022-07-23T09:42:25;99576.94;;;35.67;32.17
32083;BME280;18597;48.328;7.932;2022-07-23T09:44:54;99583.09;;;35.64;31.82
32083;BME280;18597;48.328;7.932;2022-07-23T09:47:24;99580.16;;;35.74;31.83
32083;BME280;18597;48.328;7.932;2022-07-23T09:50:09;99586.94;;;35.44;32.18
32083;BME280;18597;48.328;7.932;2022-07-23T09:52:49;99581.69;;;35.42;32.27
32083;BME280;18597;48.328;7.932;2022-07-23T09:55:17;99590.03;;;35.42;32.19
32083;BME280;18597;48.328;7.932;2022-07-23T09:57:44;99593.03;;;35.22;32.37
32083;BME280;18597;48.328;7.932;2022-07-23T10:00:12;99597.97;;;35.25;32.18
32083;BME280;18597;48.328;7.932;2022-07-23T10:02:39;99596.81;;;35.07;33.01
32083;BME280;18597;48.328;7.932;2022-07-23T10:05:07;99592.75;;;34.94;32.18
32083;BME280;18597;48.328;7.932;2022-07-23T10:07:38;99596.78;;;34.78;31.32
32083;BME280;18597;48.328;7.932;2022-07-23T10:10:06;99594.63;;;34.70;31.29
32083;BME280;18597;48.328;7.932;2022-07-23T10:12:32;99590.22;;;34.69;31.65
32083;BME280;18597;48.328;7.932;2022-07-23T10:15:18;99589.94;;;34.65;30.65
32083;BME280;18597;48.328;7.932;2022-07-23T10:17:44;99590.63;;;34.81;30.18
32083;BME280;18597;48.328;7.932;2022-07-23T10:20:10;99600.06;;;34.80;31.23
32083;BME280;18597;48.328;7.932;2022-07-23T10:22:42;99598.84;;;34.96;30.66
32083;BME280;18597;48.328;7.932;2022-07-23T10:25:36;99612.84;;;35.10;31.05
32083;BME280;18597;48.328;7.932;2022-07-23T10:31:34;99601.88;;;35.00;30.45
32083;BME280;18597;48.328;7.932;2022-07-23T10:34:21;99604.38;;;34.96;30.93
32083;BME280;18597;48.328;7.932;2022-07-23T10:40:20;99608.72;;;35.08;29.89
32083;BME280;18597;48.328;7.932;2022-07-23T10:42:50;99612.56;;;35.12;30.70
32083;BME280;18597;48.328;7.932;2022-07-23T10:45:34;99606.13;;;35.16;31.37
32083;BME280;18597;48.328;7.932;2022-07-23T10:48:22;99606.34;;;34.96;31.51
32083;BME280;18597;48.328;7.932;2022-07-23T10:51:10;99600.38;;;34.79;31.86
32083;BME280;18597;48.328;7.932;2022-07-23T10:53:57;99606.59;;;34.65;32.01
32083;BME280;18597;48.328;7.932;2022-07-23T10:57:05;99596.00;;;34.33;32.16
32083;BME280;18597;48.328;7.932;2022-07-23T11:02:45;99595.41;;;33.97;33.37
32083;BME280;18597;48.328;7.932;2022-07-23T11:05:16;99601.59;;;33.79;32.92
32083;BME280;18597;48.328;7.932;2022-07-23T11:10:42;99606.41;;;33.53;33.74
32083;BME280;18597;48.328;7.932;2022-07-23T11:13:28;99605.31;;;33.44;33.38
32083;BME280;18597;48.328;7.932;2022-07-23T11:24:08;99599.34;;;32.96;34.77
32083;BME280;18597;48.328;7.932;2022-07-23T11:32:08;99597.66;;;33.00;36.05
32083;BME280;18597;48.328;7.932;2022-07-23T11:34:45;99594.88;;;32.95;35.97
32083;BME280;18597;48.328;7.932;2022-07-23T11:37:31;99604.84;;;33.01;35.72
32083;BME280;18597;48.328;7.932;2022-07-23T11:39:58;99597.13;;;33.03;34.98
32083;BME280;18597;48.328;7.932;2022-07-23T11:42:24;99599.03;;;33.12;35.66
32083;BME280;18597;48.328;7.932;2022-07-23T11:44:51;99597.59;;;33.30;35.40
32083;BME280;18597;48.328;7.932;2022-07-23T11:47:24;99600.94;;;33.22;35.69
32083;BME280;18597;48.328;7.932;2022-07-23T11:49:57;99602.03;;;33.21;35.23
32083;BME280;18597;48.328;7.932;2022-07-23T11:52:24;99603.69;;;33.27;35.56
32083;BME280;18597;48.328;7.932;2022-07-23T11:55:01;99593.44;;;33.43;35.36
32083;BME280;18597;48.328;7.932;2022-07-23T11:57:32;99589.50;;;33.54;34.43
32083;BME280;18597;48.328;7.932;2022-07-23T12:00:20;99593.59;;;33.62;34.93
32083;BME280;18597;48.328;7.932;2022-07-23T12:02:51;99592.41;;;33.83;33.69
32083;BME280;18597;48.328;7.932;2022-07-23T12:05:22;99587.13;;;33.92;33.64
32083;BME280;18597;48.328;7.932;2022-07-23T12:07:51;99587.97;;;33.87;33.57
32083;BME280;18597;48.328;7.932;2022-07-23T12:10:23;99594.06;;;33.89;33.50
32083;BME280;18597;48.328;7.932;2022-07-23T12:12:56;99587.31;;;34.06;33.71
32083;BME280;18597;48.328;7.932;2022-07-23T12:15:28;99591.41;;;34.13;33.08
32083;BME280;18597;48.328;7.932;2022-07-23T12:17:56;99594.69;;;34.20;32.93
32083;BME280;18597;48.328;7.932;2022-07-23T12:20:25;99584.56;;;34.01;33.57
32083;BME280;18597;48.328;7.932;2022-07-23T12:22:56;99582.91;;;34.00;33.64
32083;BME280;18597;48.328;7.932;2022-07-23T12:25:27;99584.50;;;34.16;33.84
32083;BME280;18597;48.328;7.932;2022-07-23T12:28:09;99583.91;;;34.19;33.24
32083;BME280;18597;48.328;7.932;2022-07-23T12:30:53;99588.44;;;34.05;33.58
32083;BME280;18597;48.328;7.932;2022-07-23T12:33:29;99576.81;;;34.03;33.32
32083;BME280;18597;48.328;7.932;2022-07-23T12:35:59;99579.72;;;34.21;33.53
32083;BME280;18597;48.328;7.932;2022-07-23T12:38:27;99582.69;;;34.30;33.07
32083;BME280;18597;48.328;7.932;2022-07-23T12:40:59;99581.63;;;34.31;33.67
32083;BME280;18597;48.328;7.932;2022-07-23T12:43:29;99577.25;;;34.20;33.38
32083;BME280;18597;48.328;7.932;2022-07-23T12:48:52;99582.50;;;33.67;34.19
32083;BME280;18597;48.328;7.932;2022-07-23T12:51:22;99584.28;;;33.43;35.21
32083;BME280;18597;48.328;7.932;2022-07-23T12:53:52;99587.44;;;32.90;35.25
32083;BME280;18597;48.328;7.932;2022-07-23T12:56:31;99584.94;;;33.04;35.02
32083;BME280;18597;48.328;7.932;2022-07-23T12:59:07;99586.03;;;33.03;36.00
32083;BME280;18597;48.328;7.932;2022-07-23T13:01:39;99584.41;;;32.92;36.17
32083;BME280;18597;48.328;7.932;2022-07-23T13:06:51;99593.25;;;32.58;37.03
32083;BME280;18597;48.328;7.932;2022-07-23T13:09:21;99582.47;;;32.46;37.28
32083;BME280;18597;48.328;7.932;2022-07-23T13:11:48;99574.97;;;32.42;37.19
32083;BME280;18597;48.328;7.932;2022-07-23T13:14:16;99584.66;;;32.39;36.39
32083;BME280;18597;48.328;7.932;2022-07-23T13:16:44;99578.31;;;32.34;37.44
32083;BME280;18597;48.328;7.932;2022-07-23T13:19:10;99587.94;;;32.26;37.82
32083;BME280;18597;48.328;7.932;2022-07-23T13:21:37;99579.91;;;32.24;37.39
32083;BME280;18597;48.328;7.932;2022-07-23T13:24:03;99574.47;;;32.35;36.36
32083;BME280;18597;48.328;7.932;2022-07-23T13:26:29;99571.41;;;32.46;36.55
32083;BME280;18597;48.328;7.932;2022-07-23T13:28:55;99572.22;;;32.47;36.58
32083;BME280;18597;48.328;7.932;2022-07-23T13:31:21;99575.50;;;32.28;36.30
32083;BME280;18597;48.328;7.932;2022-07-23T13:33:47;99582.63;;;31.84;36.10
32083;BME280;18597;48.328;7.932;2022-07-23T13:36:13;99575.41;;;31.78;37.22
32083;BME280;18597;48.328;7.932;2022-07-23T13:38:39;99566.34;;;31.92;37.32
32083;BME280;18597;48.328;7.932;2022-07-23T13:41:05;99570.75;;;31.93;37.98